Time;durP1;ratioP1;P1;durP2;ratioP2;P2;SDS_P1;SDS_P2;PMS_P1;PMS_P2;Temp;Humidity;BMP_temperature;BMP_pressure;BME280_temperature;BME280_humidity;BME280_pressure;Samples;Min_cycle;Max_cycle;Signal;HPM_P1;HPM_P2
2023/04/02 00:00:59;;;;;;;0.90;0.90;;;;;;;8.51;100.00;97713.28;4167144;28;20239;-50
2023/04/02 00:03:07;;;;;;;3.40;1.27;;;;;;;8.56;100.00;97717.97;4169367;28;20212;-50
2023/04/02 00:05:30;;;;;;;0.90;0.90;;;;;;;8.50;100.00;97717.06;4178484;28;20203;-51
2023/04/02 00:07:32;;;;;;;2.35;1.00;;;;;;;8.53;100.00;97715.75;4170798;28;20590;-50
2023/04/02 00:09:37;;;;;;;0.85;0.85;;;;;;;8.56;100.00;97723.41;4176897;28;20277;-51
2023/04/02 00:11:41;;;;;;;0.90;0.90;;;;;;;8.48;100.00;97730.13;4156471;28;20204;-50
2023/04/02 00:13:45;;;;;;;1.13;1.02;;;;;;;8.48;100.00;97734.78;4170597;28;20733;-49
2023/04/02 00:15:50;;;;;;;1.13;1.02;;;;;;;8.47;100.00;97733.94;4172825;28;20362;-49
2023/04/02 00:17:51;;;;;;;1.85;0.95;;;;;;;8.45;100.00;97732.56;4178281;28;20204;-49
2023/04/02 00:20:02;;;;;;;1.17;1.10;;;;;;;8.45;100.00;97735.28;4162493;28;20271;-50
2023/04/02 00:22:12;;;;;;;1.75;1.00;;;;;;;8.48;100.00;97734.78;4178530;28;20780;-50
2023/04/02 00:24:17;;;;;;;0.80;0.80;;;;;;;8.46;100.00;97729.59;4171928;28;20203;-50
2023/04/02 00:26:32;;;;;;;1.10;1.10;;;;;;;8.38;100.00;97751.00;4157109;28;20261;-50
2023/04/02 00:28:34;;;;;;;1.10;1.10;;;;;;;8.37;100.00;97746.66;4167511;28;20224;-50
2023/04/02 00:30:37;;;;;;;1.70;1.02;;;;;;;8.48;100.00;97746.50;4137752;28;20687;-50
2023/04/02 00:32:39;;;;;;;1.10;1.00;;;;;;;8.45;100.00;97740.72;4195116;28;20307;-50
2023/04/02 00:34:41;;;;;;;1.85;1.05;;;;;;;8.41;100.00;97751.31;4169984;28;20204;-50
2023/04/02 00:36:43;;;;;;;2.70;0.95;;;;;;;8.50;100.00;97740.81;4178244;28;20246;-49
2023/04/02 00:38:45;;;;;;;2.78;1.08;;;;;;;8.46;100.00;97742.38;4172038;28;20291;-50
2023/04/02 00:40:50;;;;;;;1.13;1.00;;;;;;;8.48;100.00;97745.69;4184052;28;20654;-51
2023/04/02 00:42:58;;;;;;;2.20;1.00;;;;;;;8.46;100.00;97753.28;4192912;28;20338;-49
2023/04/02 00:45:00;;;;;;;1.13;0.90;;;;;;;8.58;100.00;97751.25;4169125;28;20693;-49
2023/04/02 00:47:15;;;;;;;1.30;1.13;;;;;;;8.53;100.00;97748.44;4170974;28;20267;-52
2023/04/02 00:49:23;;;;;;;1.02;0.93;;;;;;;8.60;100.00;97744.47;4178224;28;20269;-50
2023/04/02 00:51:30;;;;;;;1.58;1.17;;;;;;;8.59;100.00;97752.88;4169999;28;21275;-51
2023/04/02 00:53:32;;;;;;;1.20;1.10;;;;;;;8.47;100.00;97749.47;4170879;28;20208;-50
2023/04/02 00:55:38;;;;;;;1.25;1.25;;;;;;;8.46;100.00;97753.28;4168212;28;20251;-50
2023/04/02 00:57:43;;;;;;;1.40;1.30;;;;;;;8.43;100.00;97753.81;4169632;28;20200;-50
2023/04/02 00:59:58;;;;;;;1.52;1.42;;;;;;;8.48;100.00;97745.69;4200462;28;20877;-49
2023/04/02 01:02:16;;;;;;;1.77;1.67;;;;;;;8.41;100.00;97759.50;4175871;28;20253;-51
2023/04/02 01:04:35;;;;;;;2.05;1.92;;;;;;;8.43;100.00;97748.34;4186288;28;20334;-52
2023/04/02 01:06:37;;;;;;;1.70;1.60;;;;;;;8.48;100.00;97751.94;4184592;28;20228;-50
2023/04/02 01:08:51;;;;;;;1.73;1.45;;;;;;;8.43;100.00;97757.34;4168264;28;20840;-50
2023/04/02 01:11:06;;;;;;;2.38;1.75;;;;;;;8.49;100.00;97752.78;4167756;28;20212;-50
2023/04/02 01:13:20;;;;;;;1.85;1.42;;;;;;;8.38;100.00;97764.66;4168830;28;20220;-50
2023/04/02 01:15:31;;;;;;;1.85;1.70;;;;;;;8.48;100.00;97767.50;4177479;28;20235;-52
2023/04/02 01:17:53;;;;;;;2.05;1.60;;;;;;;8.55;100.00;97762.69;4168553;28;20571;-50
2023/04/02 01:20:07;;;;;;;2.20;2.00;;;;;;;8.53;100.00;97759.34;4167966;28;20217;-51
2023/04/02 01:22:36;;;;;;;2.13;1.63;;;;;;;8.49;100.00;97763.69;4170756;28;20200;-50
2023/04/02 01:24:37;;;;;;;1.77;1.60;;;;;;;8.49;100.00;97766.41;4133024;28;20220;-51
2023/04/02 01:26:51;;;;;;;1.60;1.50;;;;;;;8.53;100.00;97762.09;4177046;28;20236;-50
2023/04/02 01:28:59;;;;;;;2.25;1.98;;;;;;;8.50;100.00;97777.03;4168135;28;20302;-50
2023/04/02 01:31:01;;;;;;;1.30;1.20;;;;;;;8.60;100.00;97765.44;4169804;28;20578;-50
2023/04/02 01:33:05;;;;;;;1.80;1.38;;;;;;;8.61;100.00;97761.66;4176774;28;20216;-50
2023/04/02 01:35:07;;;;;;;1.90;1.80;;;;;;;8.57;100.00;97766.78;4167641;28;20675;-51
2023/04/02 01:37:11;;;;;;;2.63;2.53;;;;;;;8.54;100.00;97771.94;4201442;28;20728;-51
2023/04/02 01:39:24;;;;;;;2.22;2.03;;;;;;;8.42;100.00;97776.69;4168489;28;20212;-50
2023/04/02 01:41:35;;;;;;;3.75;1.83;;;;;;;8.46;100.00;97777.81;4171062;28;20612;-52
2023/04/02 01:44:02;;;;;;;1.75;1.65;;;;;;;8.40;100.00;97781.56;4201533;28;20234;-50
2023/04/02 01:46:22;;;;;;;1.67;1.58;;;;;;;8.52;100.00;97780.38;4168867;28;20323;-50
2023/04/02 01:48:28;;;;;;;2.70;1.73;;;;;;;8.44;100.00;97785.44;4166564;28;20685;-50
2023/04/02 01:50:38;;;;;;;2.92;2.25;;;;;;;8.51;100.00;97795.09;4187844;28;21167;-50
2023/04/02 01:52:41;;;;;;;3.45;3.15;;;;;;;8.47;100.00;97788.47;4168278;28;20312;-50
2023/04/02 01:54:46;;;;;;;2.22;1.67;;;;;;;8.50;100.00;97796.13;4185441;28;20609;-50
2023/04/02 01:56:49;;;;;;;3.22;2.15;;;;;;;8.50;100.00;97798.06;4170785;28;20227;-51
2023/04/02 01:58:51;;;;;;;2.97;1.67;;;;;;;8.46;100.00;97803.19;4176435;28;20293;-52
2023/04/02 02:01:06;;;;;;;3.53;1.55;;;;;;;8.55;100.00;97806.31;4166846;28;20256;-50
2023/04/02 02:03:10;;;;;;;6.45;2.13;;;;;;;8.54;100.00;97804.66;4176220;28;20303;-50
2023/04/02 02:05:13;;;;;;;3.45;2.00;;;;;;;8.49;100.00;97804.59;4168132;28;20246;-50
2023/04/02 02:07:18;;;;;;;2.70;2.35;;;;;;;8.45;100.00;97811.63;4186416;28;20269;-51
2023/04/02 02:09:23;;;;;;;2.05;1.95;;;;;;;8.51;100.00;97802.41;4186959;28;20211;-50
2023/04/02 02:11:27;;;;;;;1.65;1.55;;;;;;;8.53;100.00;97809.28;4174612;28;20208;-50
2023/04/02 02:13:31;;;;;;;1.85;1.75;;;;;;;8.48;100.00;97811.13;4186409;28;20290;-50
2023/04/02 02:15:33;;;;;;;1.70;1.55;;;;;;;8.57;100.00;97815.03;4171330;28;20909;-50
2023/04/02 02:17:35;;;;;;;1.60;1.50;;;;;;;8.49;100.00;97812.78;4173606;28;20269;-50
2023/04/02 02:19:40;;;;;;;2.22;1.95;;;;;;;8.43;100.00;97809.13;4185497;28;20253;-50
2023/04/02 02:21:44;;;;;;;2.00;1.73;;;;;;;8.53;100.00;97802.97;4167540;28;20212;-50
2023/04/02 02:23:46;;;;;;;2.38;2.20;;;;;;;8.49;100.00;97818.22;4167959;28;20246;-51
2023/04/02 02:25:48;;;;;;;1.70;1.60;;;;;;;8.57;100.00;97815.03;4171189;28;20239;-50
2023/04/02 02:28:09;;;;;;;1.40;1.30;;;;;;;8.59;100.00;97823.78;4169074;28;20212;-50
2023/04/02 02:30:25;;;;;;;2.05;1.92;;;;;;;8.54;100.00;97818.28;4167228;28;20240;-50
2023/04/02 02:32:29;;;;;;;1.42;1.33;;;;;;;8.56;100.00;97825.09;4167780;28;20220;-50
2023/04/02 02:34:36;;;;;;;2.35;1.40;;;;;;;8.60;100.00;97833.59;4155272;28;20752;-51
2023/04/02 02:36:52;;;;;;;1.52;1.42;;;;;;;8.62;100.00;97829.53;4168446;28;20239;-50
2023/04/02 02:39:01;;;;;;;1.30;1.30;;;;;;;8.55;100.00;97828.13;4176582;28;20282;-50
2023/04/02 02:41:26;;;;;;;1.63;1.52;;;;;;;8.54;100.00;97831.91;4168255;28;20208;-51
2023/04/02 02:43:28;;;;;;;2.58;1.55;;;;;;;8.56;100.00;97830.56;4167065;28;20247;-50
2023/04/02 02:45:34;;;;;;;2.13;2.00;;;;;;;8.48;100.00;97832.94;4170020;28;20265;-50
2023/04/02 02:47:37;;;;;;;2.10;1.90;;;;;;;8.47;100.00;97842.16;4166682;28;20259;-50
2023/04/02 02:49:42;;;;;;;1.55;1.45;;;;;;;8.50;100.00;97841.66;4175799;28;20214;-51
2023/04/02 02:51:52;;;;;;;1.75;1.65;;;;;;;8.36;100.00;97845.84;4171042;28;20295;-50
2023/04/02 02:53:59;;;;;;;1.80;1.70;;;;;;;8.36;100.00;97849.38;4159627;28;20259;-50
2023/04/02 02:56:01;;;;;;;1.88;1.77;;;;;;;8.44;100.00;97848.13;4168976;28;20232;-50
2023/04/02 02:58:14;;;;;;;5.72;1.80;;;;;;;8.46;100.00;97845.97;4168032;28;20270;-51
2023/04/02 03:00:18;;;;;;;1.63;1.52;;;;;;;8.40;100.00;97846.97;4167594;28;20542;-51
2023/04/02 03:02:20;;;;;;;1.73;1.63;;;;;;;8.39;100.00;97850.78;4170610;28;20635;-52
2023/04/02 03:04:23;;;;;;;1.75;1.48;;;;;;;8.43;100.00;97850.03;4169359;28;20207;-51
2023/04/02 03:06:25;;;;;;;2.20;2.05;;;;;;;8.40;100.00;97855.16;4174677;28;21152;-51
2023/04/02 03:08:33;;;;;;;2.10;2.00;;;;;;;8.37;100.00;97853.78;4186559;28;20764;-52
2023/04/02 03:10:46;;;;;;;2.20;1.95;;;;;;;8.47;100.00;97859.34;4169594;28;20207;-51
2023/04/02 03:13:04;;;;;;;1.83;1.73;;;;;;;8.47;100.00;97861.25;4188138;28;20234;-50
2023/04/02 03:15:20;;;;;;;1.90;1.80;;;;;;;8.44;100.00;97865.34;4178347;28;20219;-50
2023/04/02 03:17:31;;;;;;;1.67;1.58;;;;;;;8.50;100.00;97864.28;4169992;28;20302;-52
2023/04/02 03:19:44;;;;;;;1.88;1.77;;;;;;;8.45;100.00;97868.88;4178546;28;20647;-50
2023/04/02 03:22:03;;;;;;;2.17;1.98;;;;;;;8.48;100.00;97877.34;4172399;28;20806;-51
2023/04/02 03:24:19;;;;;;;1.80;1.70;;;;;;;8.41;100.00;97884.09;4170655;28;20207;-51
2023/04/02 03:26:34;;;;;;;1.35;1.30;;;;;;;8.50;100.00;97885.28;4162855;28;20229;-52
2023/04/02 03:28:40;;;;;;;4.07;2.03;;;;;;;8.57;100.00;97881.31;4176696;28;20216;-50
2023/04/02 03:30:52;;;;;;;1.85;1.75;;;;;;;8.51;100.00;97892.41;4174565;28;20660;-52
2023/04/02 03:32:58;;;;;;;1.63;1.52;;;;;;;8.48;100.00;97893.72;4162799;28;20716;-51
2023/04/02 03:35:09;;;;;;;1.75;1.65;;;;;;;8.39;100.00;97891.66;4153699;28;20315;-51
2023/04/02 03:37:17;;;;;;;2.15;1.92;;;;;;;8.44;100.00;97886.28;4171115;28;20208;-52
2023/04/02 03:39:30;;;;;;;3.05;1.70;;;;;;;8.57;100.00;97896.84;4178264;28;20199;-51
2023/04/02 03:41:45;;;;;;;1.75;1.58;;;;;;;8.57;100.00;97891.38;4173197;28;20254;-52
2023/04/02 03:43:51;;;;;;;1.50;1.38;;;;;;;8.49;100.00;97895.38;4171160;28;20232;-51
2023/04/02 03:46:22;;;;;;;2.35;1.58;;;;;;;8.48;100.00;97898.38;4171836;28;20322;-51
2023/04/02 03:48:35;;;;;;;2.13;1.70;;;;;;;8.43;100.00;97906.47;4161266;28;20600;-50
2023/04/02 03:50:52;;;;;;;1.80;1.55;;;;;;;8.37;100.00;97900.13;4153621;28;20209;-50
2023/04/02 03:52:56;;;;;;;2.60;1.30;;;;;;;8.37;100.00;97902.84;4171860;28;20205;-50
2023/04/02 03:54:59;;;;;;;1.50;1.40;;;;;;;8.44;100.00;97908.09;4169822;28;20232;-51
2023/04/02 03:57:01;;;;;;;2.22;1.83;;;;;;;8.46;100.00;97909.50;4173518;28;20701;-50
2023/04/02 03:59:20;;;;;;;1.30;1.20;;;;;;;8.44;100.00;97913.56;4170244;28;20208;-50
2023/04/02 04:01:38;;;;;;;2.47;1.52;;;;;;;8.48;100.00;97917.44;4170213;28;20232;-51
2023/04/02 04:03:46;;;;;;;1.50;1.40;;;;;;;8.31;100.00;97919.38;4186890;28;20207;-50
2023/04/02 04:05:48;;;;;;;1.55;1.45;;;;;;;8.40;100.00;97923.31;4176850;28;21544;-50
2023/04/02 04:07:52;;;;;;;1.52;1.42;;;;;;;8.43;100.00;97929.09;4166516;28;20257;-52
2023/04/02 04:09:54;;;;;;;1.77;1.67;;;;;;;8.35;100.00;97925.97;4171030;28;20207;-51
2023/04/02 04:12:06;;;;;;;1.63;1.52;;;;;;;8.39;100.00;97927.09;4178055;28;20358;-51
2023/04/02 04:14:17;;;;;;;1.75;1.52;;;;;;;8.41;100.00;97933.97;4170295;28;20314;-50
2023/04/02 04:16:27;;;;;;;3.85;1.50;;;;;;;8.40;100.00;97928.75;4185614;28;20274;-52
2023/04/02 04:18:33;;;;;;;2.67;1.50;;;;;;;8.43;100.00;97928.28;4203315;28;20211;-51
2023/04/02 04:20:38;;;;;;;1.70;1.60;;;;;;;8.45;100.00;97937.00;4167258;28;20204;-51
2023/04/02 04:22:40;;;;;;;1.92;1.83;;;;;;;8.41;100.00;97938.63;4167504;28;20669;-50
2023/04/02 04:24:44;;;;;;;1.83;1.67;;;;;;;8.41;100.00;97947.59;4171007;28;20284;-51
2023/04/02 04:27:08;;;;;;;1.50;1.40;;;;;;;8.41;100.00;97947.59;4173210;28;20623;-51
2023/04/02 04:29:26;;;;;;;1.80;1.70;;;;;;;8.30;100.00;97950.44;4168784;28;20216;-50
2023/04/02 04:31:54;;;;;;;1.45;1.35;;;;;;;8.26;100.00;97949.25;4170881;28;20211;-50
2023/04/02 04:34:02;;;;;;;1.60;1.48;;;;;;;8.27;100.00;97956.34;4163913;28;20335;-50
2023/04/02 04:36:05;;;;;;;2.20;1.50;;;;;;;8.28;100.00;97952.59;4172311;28;21141;-50
2023/04/02 04:38:26;;;;;;;1.48;1.38;;;;;;;8.21;100.00;97958.19;4167169;28;20699;-51
2023/04/02 04:40:30;;;;;;;1.45;1.35;;;;;;;8.27;100.00;97961.81;4153068;28;20295;-51
2023/04/02 04:42:34;;;;;;;1.38;1.33;;;;;;;8.25;100.00;97958.53;4177957;28;20304;-50
2023/04/02 04:44:50;;;;;;;1.98;1.50;;;;;;;8.30;100.00;97961.31;4154581;28;20205;-50
2023/04/02 04:47:17;;;;;;;2.00;1.48;;;;;;;8.31;100.00;97965.69;4177582;28;20228;-50
2023/04/02 04:49:28;;;;;;;1.90;1.70;;;;;;;8.25;100.00;97975.72;4169272;28;20667;-50
2023/04/02 04:51:38;;;;;;;1.65;1.55;;;;;;;8.30;100.00;97966.78;4172853;28;20665;-52
2023/04/02 04:53:45;;;;;;;1.52;1.42;;;;;;;8.32;100.00;97973.63;4202293;28;20218;-51
2023/04/02 04:55:49;;;;;;;1.50;1.40;;;;;;;8.24;100.00;97975.94;4178101;28;20278;-50
2023/04/02 04:57:55;;;;;;;1.60;1.50;;;;;;;8.30;100.00;97978.50;4178385;28;20693;-50
2023/04/02 05:00:05;;;;;;;1.90;1.50;;;;;;;8.29;100.00;97982.28;4178250;28;20239;-52
2023/04/02 05:02:17;;;;;;;2.10;2.00;;;;;;;8.30;100.00;97983.13;4172284;28;20222;-51
2023/04/02 05:04:25;;;;;;;2.55;1.58;;;;;;;8.34;100.00;97989.75;4152633;28;20251;-53
2023/04/02 05:06:33;;;;;;;1.98;1.77;;;;;;;8.40;100.00;97988.72;4170030;28;20236;-51
2023/04/02 05:08:40;;;;;;;1.63;1.52;;;;;;;8.38;100.00;97993.63;4168365;28;20227;-49
2023/04/02 05:10:49;;;;;;;1.90;1.80;;;;;;;8.36;100.00;97993.84;4177211;28;20539;-49
2023/04/02 05:13:16;;;;;;;1.42;1.33;;;;;;;8.37;100.00;98000.16;4168715;28;20239;-52
2023/04/02 05:15:45;;;;;;;2.20;2.00;;;;;;;8.34;100.00;97996.00;4175235;28;20242;-51
2023/04/02 05:17:56;;;;;;;1.70;1.60;;;;;;;8.44;100.00;98006.25;4170071;28;20212;-51
2023/04/02 05:20:15;;;;;;;2.47;2.28;;;;;;;8.42;100.00;98002.97;4169498;28;20638;-51
2023/04/02 05:22:38;;;;;;;1.50;1.40;;;;;;;8.45;100.00;98011.47;4188162;28;20247;-50
2023/04/02 05:25:11;;;;;;;1.60;1.50;;;;;;;8.46;100.00;98015.00;4171865;28;20201;-51
2023/04/02 05:27:22;;;;;;;2.05;1.83;;;;;;;8.43;100.00;98020.97;4148363;28;20209;-49
2023/04/02 05:29:28;;;;;;;2.45;2.25;;;;;;;8.43;100.00;98020.97;4169946;28;20287;-49
2023/04/02 05:31:40;;;;;;;2.30;2.20;;;;;;;8.46;100.00;98032.19;4170169;28;20674;-52
2023/04/02 05:33:45;;;;;;;2.22;2.05;;;;;;;8.48;100.00;98029.22;4176043;28;20291;-50
2023/04/02 05:35:50;;;;;;;4.30;3.30;;;;;;;8.44;100.00;98028.06;4150997;28;20229;-51
2023/04/02 05:37:52;;;;;;;3.45;3.25;;;;;;;8.47;100.00;98033.00;4191317;28;20296;-50
2023/04/02 05:39:56;;;;;;;3.20;3.00;;;;;;;8.46;100.00;98032.19;4170222;28;20236;-51
2023/04/02 05:42:01;;;;;;;3.03;2.83;;;;;;;8.50;100.00;98037.97;4166930;28;20219;-50
2023/04/02 05:44:40;;;;;;;3.22;3.03;;;;;;;8.50;100.00;98044.25;4161355;28;20240;-50
2023/04/02 05:46:48;;;;;;;2.47;2.38;;;;;;;8.52;100.00;98041.28;4158277;28;20328;-50
2023/04/02 05:48:54;;;;;;;2.22;2.13;;;;;;;8.46;100.00;98053.16;4166405;28;20208;-50
2023/04/02 05:50:57;;;;;;;2.10;2.00;;;;;;;8.47;100.00;98043.91;4160566;28;20266;-52
2023/04/02 05:53:11;;;;;;;2.13;2.03;;;;;;;8.48;100.00;98056.50;4171295;28;20236;-51
2023/04/02 05:55:16;;;;;;;3.28;1.70;;;;;;;8.52;100.00;98057.63;4171646;28;20266;-51
2023/04/02 05:57:21;;;;;;;1.98;1.80;;;;;;;8.50;100.00;98059.78;4167288;28;20219;-50
2023/04/02 05:59:43;;;;;;;2.22;1.90;;;;;;;8.40;100.00;98065.91;4181558;28;20211;-50
2023/04/02 06:01:54;;;;;;;2.25;2.15;;;;;;;8.48;100.00;98067.41;4187071;28;20689;-51
2023/04/02 06:04:38;;;;;;;2.25;2.15;;;;;;;8.39;100.00;98079.78;4166799;28;20594;-51
2023/04/02 06:06:43;;;;;;;1.98;1.70;;;;;;;8.42;100.00;98076.56;4158946;28;20643;-50
2023/04/02 06:08:57;;;;;;;3.67;1.90;;;;;;;8.42;100.00;98082.00;4169890;28;20249;-51
2023/04/02 06:11:05;;;;;;;2.38;1.83;;;;;;;8.40;100.00;98081.41;4171899;28;20231;-50
2023/04/02 06:13:07;;;;;;;2.10;1.73;;;;;;;8.42;100.00;98090.19;4166757;28;20295;-51
2023/04/02 06:15:14;;;;;;;2.22;2.13;;;;;;;8.30;100.00;98092.16;4168389;28;20259;-51
2023/04/02 06:17:19;;;;;;;2.00;1.90;;;;;;;8.36;100.00;98107.53;4167834;28;20215;-50
2023/04/02 06:19:31;;;;;;;2.38;2.28;;;;;;;8.30;100.00;98108.50;4170094;28;20216;-51
2023/04/02 06:21:33;;;;;;;1.98;1.88;;;;;;;8.22;100.00;98111.66;4201067;28;20282;-53
2023/04/02 06:23:57;;;;;;;2.17;2.08;;;;;;;8.23;100.00;98113.28;4149714;28;20211;-50
2023/04/02 06:26:03;;;;;;;1.98;1.88;;;;;;;8.35;100.00;98116.78;4168067;28;20263;-51
2023/04/02 06:28:11;;;;;;;2.65;2.00;;;;;;;8.30;100.00;98119.41;4175379;28;20273;-51
2023/04/02 06:30:18;;;;;;;2.40;2.22;;;;;;;8.38;100.00;98121.72;4169739;28;20266;-51
2023/04/02 06:32:23;;;;;;;2.35;1.73;;;;;;;8.41;100.00;98126.72;4169444;28;20934;-50
2023/04/02 06:34:26;;;;;;;2.15;1.98;;;;;;;8.44;100.00;98127.06;4171486;28;20219;-50
2023/04/02 06:36:28;;;;;;;2.28;2.08;;;;;;;8.36;100.00;98129.34;4167378;28;20228;-51
2023/04/02 06:38:31;;;;;;;2.33;2.17;;;;;;;8.41;100.00;98137.63;4175984;28;20301;-50
2023/04/02 06:40:40;;;;;;;2.25;1.80;;;;;;;8.42;100.00;98134.63;4176532;28;20212;-51
2023/04/02 06:42:43;;;;;;;1.65;1.58;;;;;;;8.43;100.00;98140.91;4177117;28;20239;-50
2023/04/02 06:44:45;;;;;;;2.22;2.08;;;;;;;8.48;100.00;98143.75;4167085;28;20235;-51
2023/04/02 06:46:51;;;;;;;2.33;2.13;;;;;;;8.45;100.00;98149.66;4176187;28;20228;-51
2023/04/02 06:49:02;;;;;;;6.30;2.30;;;;;;;8.40;100.00;98153.13;4175457;28;20562;-51
2023/04/02 06:51:10;;;;;;;2.50;2.33;;;;;;;8.58;100.00;98154.81;4168580;28;20242;-51
2023/04/02 06:53:50;;;;;;;2.08;1.95;;;;;;;8.56;100.00;98155.03;4167729;28;20689;-51
2023/04/02 06:55:59;;;;;;;3.08;2.17;;;;;;;8.51;100.00;98165.03;4156896;28;20251;-51
2023/04/02 06:58:01;;;;;;;3.50;1.85;;;;;;;8.55;100.00;98171.69;4155004;28;20228;-52
2023/04/02 07:00:03;;;;;;;2.40;2.20;;;;;;;8.58;100.00;98173.91;4169655;28;20239;-49
2023/04/02 07:02:23;;;;;;;2.47;2.30;;;;;;;8.55;100.00;98177.13;4173606;28;20294;-50
2023/04/02 07:04:26;;;;;;;2.45;2.35;;;;;;;8.62;100.00;98178.63;4168833;28;20322;-49
2023/04/02 07:06:28;;;;;;;2.08;1.98;;;;;;;8.63;100.00;98182.19;4171231;28;20230;-50
2023/04/02 07:08:33;;;;;;;2.50;1.95;;;;;;;8.67;100.00;98191.50;4186563;28;20642;-50
2023/04/02 07:10:35;;;;;;;2.50;2.30;;;;;;;8.71;100.00;98187.22;4168183;28;20220;-50
2023/04/02 07:12:36;;;;;;;2.63;2.42;;;;;;;8.75;100.00;98188.41;4167597;28;20741;-50
2023/04/02 07:14:39;;;;;;;2.42;2.22;;;;;;;8.77;100.00;98186.25;4148720;28;20201;-50
2023/04/02 07:16:42;;;;;;;2.75;2.30;;;;;;;8.77;100.00;98199.88;4170585;28;20223;-50
2023/04/02 07:18:44;;;;;;;2.40;2.20;;;;;;;8.81;100.00;98204.59;4170722;28;20266;-50
2023/04/02 07:20:46;;;;;;;3.45;3.25;;;;;;;8.89;100.00;98206.09;4176119;28;20854;-51
2023/04/02 07:22:47;;;;;;;2.70;2.50;;;;;;;8.88;100.00;98209.91;4176336;28;20334;-50
2023/04/02 07:24:49;;;;;;;3.10;2.40;;;;;;;8.80;100.00;98208.41;4168527;28;20209;-49
2023/04/02 07:26:51;;;;;;;2.92;2.83;;;;;;;8.85;100.00;98215.84;4173375;28;20259;-49
2023/04/02 07:28:55;;;;;;;3.22;3.03;;;;;;;8.90;100.00;98214.00;4153420;28;20228;-50
2023/04/02 07:30:57;;;;;;;2.17;2.08;;;;;;;8.90;100.00;98221.38;4168606;28;20559;-50
2023/04/02 07:33:00;;;;;;;3.08;2.88;;;;;;;8.95;100.00;98222.28;4170055;28;20213;-51
2023/04/02 07:35:03;;;;;;;3.22;3.03;;;;;;;9.00;100.00;98227.00;4166424;28;20232;-49
2023/04/02 07:37:06;;;;;;;2.90;2.70;;;;;;;9.02;100.00;98233.06;4150724;28;20268;-50
2023/04/02 07:39:08;;;;;;;3.85;3.55;;;;;;;9.00;100.00;98236.03;4167772;28;20201;-50
2023/04/02 07:41:10;;;;;;;2.90;2.70;;;;;;;9.08;100.00;98238.34;4171081;28;20205;-50
2023/04/02 07:43:12;;;;;;;3.22;3.03;;;;;;;9.15;100.00;98243.66;4175607;28;20262;-49
2023/04/02 07:45:14;;;;;;;2.75;2.55;;;;;;;9.14;100.00;98247.47;4169667;28;20225;-51
2023/04/02 07:47:16;;;;;;;3.63;3.42;;;;;;;9.23;100.00;98241.31;4164231;28;20738;-49
2023/04/02 07:49:17;;;;;;;3.80;3.53;;;;;;;9.28;100.00;98246.06;4201154;28;20755;-49
2023/04/02 07:51:24;;;;;;;3.05;2.85;;;;;;;9.41;100.00;98245.72;4171406;28;20228;-50
2023/04/02 07:53:32;;;;;;;3.15;2.95;;;;;;;9.46;100.00;98245.78;4187635;28;20249;-50
2023/04/02 07:55:34;;;;;;;3.65;3.35;;;;;;;9.46;100.00;98248.53;4170738;28;20239;-50
2023/04/02 07:57:42;;;;;;;2.75;2.55;;;;;;;9.54;100.00;98248.13;4171477;28;20208;-50
2023/04/02 07:59:47;;;;;;;3.60;3.30;;;;;;;9.65;100.00;98261.69;4186326;28;20580;-50
2023/04/02 08:01:51;;;;;;;2.60;2.40;;;;;;;9.66;100.00;98262.47;4174216;28;20699;-50
2023/04/02 08:04:09;;;;;;;2.40;2.22;;;;;;;9.65;100.00;98269.03;4169372;28;20224;-50
2023/04/02 08:06:11;;;;;;;2.58;2.38;;;;;;;9.72;100.00;98272.41;4155657;28;20324;-49
2023/04/02 08:08:13;;;;;;;2.92;2.72;;;;;;;9.70;100.00;98280.88;4168720;28;20233;-50
2023/04/02 08:10:16;;;;;;;2.95;2.35;;;;;;;9.75;100.00;98272.75;4172305;28;20205;-50
2023/04/02 08:12:18;;;;;;;2.20;2.10;;;;;;;9.73;100.00;98285.00;4178853;28;20295;-50
2023/04/02 08:14:19;;;;;;;1.95;1.85;;;;;;;9.77;100.00;98286.16;4172000;28;20239;-50
2023/04/02 08:16:23;;;;;;;2.00;1.90;;;;;;;9.65;100.00;98293.63;4172269;28;20234;-49
2023/04/02 08:18:25;;;;;;;2.45;2.25;;;;;;;9.58;100.00;98298.44;4171959;28;20205;-50
2023/04/02 08:20:27;;;;;;;2.53;2.33;;;;;;;9.63;100.00;98301.25;4172834;28;20279;-50
2023/04/02 08:22:29;;;;;;;2.10;2.00;;;;;;;9.64;100.00;98302.91;4177606;28;20299;-49
2023/04/02 08:24:31;;;;;;;3.13;2.20;;;;;;;9.64;100.00;98308.34;4170180;28;20251;-50
2023/04/02 08:26:33;;;;;;;2.92;1.73;;;;;;;9.65;100.00;98307.28;4171234;28;20235;-50
2023/04/02 08:28:35;;;;;;;2.63;2.42;;;;;;;9.70;100.00;98308.22;4168316;28;20279;-50
2023/04/02 08:30:37;;;;;;;2.63;2.42;;;;;;;9.72;100.00;98316.13;4168933;28;20301;-50
2023/04/02 08:32:40;;;;;;;3.33;2.25;;;;;;;9.65;100.00;98321.78;4173899;28;20768;-50
2023/04/02 08:34:42;;;;;;;3.20;2.33;;;;;;;9.74;100.00;98314.81;4161407;28;20204;-50
2023/04/02 08:36:45;;;;;;;2.30;2.20;;;;;;;9.77;100.00;98319.78;4168437;28;20263;-50
2023/04/02 08:38:46;;;;;;;2.58;2.38;;;;;;;9.81;100.00;98326.38;4170691;28;20200;-51
2023/04/02 08:40:51;;;;;;;3.55;3.33;;;;;;;9.78;100.00;98326.06;4172239;28;20683;-50
2023/04/02 08:43:17;;;;;;;3.10;2.88;;;;;;;9.61;100.00;98333.47;4153515;28;20737;-50
2023/04/02 08:45:35;;;;;;;3.63;2.60;;;;;;;9.80;100.00;98337.56;4168455;28;20331;-50
2023/04/02 08:47:39;;;;;;;2.53;2.38;;;;;;;9.76;100.00;98344.63;4177208;28;20211;-50
2023/04/02 08:49:57;;;;;;;2.83;2.65;;;;;;;9.72;100.00;98346.19;4175716;28;20250;-50
2023/04/02 08:51:59;;;;;;;4.10;2.53;;;;;;;9.67;100.00;98352.41;4170129;28;20231;-50
2023/04/02 08:54:16;;;;;;;2.78;2.58;;;;;;;9.64;100.00;98346.59;4169061;28;20244;-50
2023/04/02 08:56:25;;;;;;;3.28;2.85;;;;;;;9.70;100.00;98351.09;4172315;28;20263;-50
2023/04/02 08:58:40;;;;;;;2.60;2.40;;;;;;;9.74;100.00;98358.53;4170605;28;20244;-51
2023/04/02 09:00:43;;;;;;;3.10;2.90;;;;;;;9.70;100.00;98362.00;4171189;28;20207;-50
2023/04/02 09:02:53;;;;;;;3.78;3.58;;;;;;;9.76;100.00;98366.47;4176000;28;20204;-51
2023/04/02 09:05:00;;;;;;;3.72;3.42;;;;;;;9.65;100.00;98370.09;4176876;28;20236;-51
2023/04/02 09:07:02;;;;;;;4.30;3.78;;;;;;;9.70;100.00;98372.94;4187758;28;20207;-50
2023/04/02 09:09:04;;;;;;;4.80;4.50;;;;;;;9.73;100.00;98366.97;4170435;28;20210;-50
2023/04/02 09:11:21;;;;;;;4.32;4.00;;;;;;;9.74;100.00;98376.84;4168301;28;21028;-51
2023/04/02 09:13:26;;;;;;;4.53;4.20;;;;;;;9.83;100.00;98378.06;4167196;28;20655;-51
2023/04/02 09:15:32;;;;;;;5.88;4.32;;;;;;;9.69;100.00;98383.03;4166297;28;20303;-51
2023/04/02 09:17:36;;;;;;;5.20;4.70;;;;;;;9.74;100.00;98379.56;4167540;28;20298;-51
2023/04/02 09:20:04;;;;;;;4.40;4.10;;;;;;;9.78;100.00;98386.19;4177243;28;20617;-51
2023/04/02 09:22:31;;;;;;;4.15;3.85;;;;;;;9.85;100.00;98386.84;4186946;28;20203;-51
2023/04/02 09:24:32;;;;;;;4.47;4.18;;;;;;;9.96;100.00;98388.66;4170213;28;20239;-50
2023/04/02 09:26:34;;;;;;;3.60;3.35;;;;;;;10.13;100.00;98395.81;4185316;28;20346;-50
2023/04/02 09:28:36;;;;;;;2.45;2.25;;;;;;;10.17;100.00;98396.13;4170073;28;20252;-50
2023/04/02 09:30:56;;;;;;;2.22;2.08;;;;;;;10.46;100.00;98394.91;4188053;28;20218;-51
2023/04/02 09:33:00;;;;;;;3.40;3.20;;;;;;;10.87;100.00;98403.41;4167115;28;20251;-51
2023/04/02 09:35:24;;;;;;;5.22;3.63;;;;;;;11.27;100.00;98401.16;4170617;28;20278;-52
2023/04/02 09:37:28;;;;;;;2.83;2.63;;;;;;;11.44;100.00;98413.69;4169798;28;20209;-51
2023/04/02 09:39:30;;;;;;;2.60;2.40;;;;;;;11.55;100.00;98412.72;4167111;28;20201;-50
2023/04/02 09:41:34;;;;;;;2.13;2.03;;;;;;;11.68;100.00;98417.81;4174122;28;20283;-51
2023/04/02 09:43:38;;;;;;;1.65;1.48;;;;;;;11.85;100.00;98413.00;4177274;28;20220;-52
2023/04/02 09:45:41;;;;;;;1.60;1.50;;;;;;;11.56;100.00;98419.84;4169591;28;20251;-51
2023/04/02 09:47:43;;;;;;;1.35;1.25;;;;;;;11.54;100.00;98422.03;4177716;28;20235;-51
2023/04/02 09:49:45;;;;;;;1.02;1.00;;;;;;;11.36;100.00;98425.09;4184256;28;20221;-51
2023/04/02 09:52:10;;;;;;;1.30;1.20;;;;;;;11.33;100.00;98428.38;4169117;28;20247;-51
2023/04/02 09:54:15;;;;;;;0.90;0.90;;;;;;;11.26;100.00;98429.66;4167985;28;20231;-50
2023/04/02 09:56:18;;;;;;;1.63;1.52;;;;;;;11.51;100.00;98440.88;4169827;28;20251;-51
2023/04/02 09:58:19;;;;;;;1.17;1.10;;;;;;;11.60;100.00;98437.47;4176488;28;20257;-50
2023/04/02 10:00:25;;;;;;;1.40;1.30;;;;;;;11.63;100.00;98436.13;4175875;28;20254;-49
2023/04/02 10:02:33;;;;;;;1.40;1.33;;;;;;;11.59;100.00;98438.56;4169731;28;20327;-49